sensor_id;sensor_type;location;lat;lon;timestamp;P1;durP1;ratioP1;P2;durP2;ratioP2
71265;SDS011;59030;52.052;8.550;2022-08-04T00:01:44;8.70;;;3.53;;
71265;SDS011;59030;52.052;8.550;2022-08-04T01:47:12;12.20;;;3.03;;
71265;SDS011;59030;52.052;8.550;2022-08-04T01:49:40;11.00;;;3.10;;
71265;SDS011;59030;52.052;8.550;2022-08-04T01:52:09;6.40;;;3.00;;
71265;SDS011;59030;52.052;8.550;2022-08-04T01:54:37;6.70;;;2.87;;
71265;SDS011;59030;52.052;8.550;2022-08-04T01:57:06;5.93;;;3.13;;
71265;SDS011;59030;52.052;8.550;2022-08-04T01:59:35;9.20;;;2.97;;
71265;SDS011;59030;52.052;8.550;2022-08-04T02:02:04;6.93;;;2.90;;
71265;SDS011;59030;52.052;8.550;2022-08-04T02:04:34;10.00;;;3.23;;
71265;SDS011;59030;52.052;8.550;2022-08-04T02:07:05;6.63;;;3.10;;
71265;SDS011;59030;52.052;8.550;2022-08-04T02:09:34;10.30;;;3.27;;
71265;SDS011;59030;52.052;8.550;2022-08-04T02:12:03;9.70;;;3.40;;
71265;SDS011;59030;52.052;8.550;2022-08-04T02:14:37;7.37;;;3.00;;
71265;SDS011;59030;52.052;8.550;2022-08-04T02:17:11;9.37;;;2.97;;
71265;SDS011;59030;52.052;8.550;2022-08-04T02:19:45;11.00;;;3.30;;
71265;SDS011;59030;52.052;8.550;2022-08-04T02:22:13;8.30;;;3.17;;
71265;SDS011;59030;52.052;8.550;2022-08-04T02:24:41;5.63;;;2.90;;
71265;SDS011;59030;52.052;8.550;2022-08-04T02:27:08;7.50;;;2.80;;
71265;SDS011;59030;52.052;8.550;2022-08-04T02:29:39;8.70;;;3.50;;
71265;SDS011;59030;52.052;8.550;2022-08-04T02:32:09;7.60;;;3.10;;
71265;SDS011;59030;52.052;8.550;2022-08-04T02:34:37;10.43;;;3.30;;
71265;SDS011;59030;52.052;8.550;2022-08-04T02:37:05;6.07;;;3.07;;
71265;SDS011;59030;52.052;8.550;2022-08-04T02:39:34;5.90;;;2.80;;
71265;SDS011;59030;52.052;8.550;2022-08-04T02:42:02;6.33;;;3.17;;
71265;SDS011;59030;52.052;8.550;2022-08-04T02:44:30;5.60;;;2.70;;
71265;SDS011;59030;52.052;8.550;2022-08-04T02:46:59;6.13;;;2.83;;
71265;SDS011;59030;52.052;8.550;2022-08-04T02:49:27;5.63;;;3.30;;
71265;SDS011;59030;52.052;8.550;2022-08-04T02:51:56;4.73;;;2.87;;
71265;SDS011;59030;52.052;8.550;2022-08-04T02:54:26;6.80;;;3.10;;
71265;SDS011;59030;52.052;8.550;2022-08-04T02:56:54;7.63;;;3.50;;
71265;SDS011;59030;52.052;8.550;2022-08-04T02:59:24;7.20;;;3.20;;
71265;SDS011;59030;52.052;8.550;2022-08-04T03:01:53;6.23;;;3.00;;
71265;SDS011;59030;52.052;8.550;2022-08-04T03:04:23;8.67;;;3.20;;
71265;SDS011;59030;52.052;8.550;2022-08-04T03:10:00;7.93;;;3.10;;
71265;SDS011;59030;52.052;8.550;2022-08-04T03:12:41;6.80;;;3.07;;
71265;SDS011;59030;52.052;8.550;2022-08-04T03:15:15;7.47;;;3.53;;
71265;SDS011;59030;52.052;8.550;2022-08-04T03:18:00;10.13;;;3.30;;
71265;SDS011;59030;52.052;8.550;2022-08-04T03:20:37;7.13;;;3.13;;
71265;SDS011;59030;52.052;8.550;2022-08-04T03:23:15;8.20;;;3.80;;
71265;SDS011;59030;52.052;8.550;2022-08-04T03:31:25;4.60;;;2.93;;
71265;SDS011;59030;52.052;8.550;2022-08-04T03:33:59;10.47;;;3.40;;
71265;SDS011;59030;52.052;8.550;2022-08-04T03:36:37;7.07;;;3.20;;
71265;SDS011;59030;52.052;8.550;2022-08-04T03:41:55;5.07;;;2.77;;
71265;SDS011;59030;52.052;8.550;2022-08-04T03:44:35;6.73;;;3.20;;
71265;SDS011;59030;52.052;8.550;2022-08-04T03:47:14;7.73;;;3.20;;
71265;SDS011;59030;52.052;8.550;2022-08-04T03:52:38;6.73;;;3.07;;
71265;SDS011;59030;52.052;8.550;2022-08-04T03:55:43;9.30;;;3.13;;
71265;SDS011;59030;52.052;8.550;2022-08-04T03:58:16;6.67;;;3.03;;
71265;SDS011;59030;52.052;8.550;2022-08-04T04:00:46;8.17;;;3.43;;
71265;SDS011;59030;52.052;8.550;2022-08-04T04:03:24;6.60;;;3.43;;
71265;SDS011;59030;52.052;8.550;2022-08-04T04:05:56;7.93;;;3.47;;
71265;SDS011;59030;52.052;8.550;2022-08-04T04:11:43;5.57;;;3.40;;
71265;SDS011;59030;52.052;8.550;2022-08-04T04:14:17;6.90;;;4.00;;
71265;SDS011;59030;52.052;8.550;2022-08-04T04:16:55;6.00;;;3.63;;
71265;SDS011;59030;52.052;8.550;2022-08-04T04:19:25;9.40;;;3.77;;
71265;SDS011;59030;52.052;8.550;2022-08-04T04:21:57;8.57;;;4.00;;
71265;SDS011;59030;52.052;8.550;2022-08-04T04:24:32;9.17;;;3.60;;
71265;SDS011;59030;52.052;8.550;2022-08-04T04:27:05;7.60;;;3.70;;
71265;SDS011;59030;52.052;8.550;2022-08-04T04:32:56;7.27;;;4.13;;
71265;SDS011;59030;52.052;8.550;2022-08-04T04:35:31;6.67;;;3.77;;
71265;SDS011;59030;52.052;8.550;2022-08-04T04:38:06;10.50;;;4.60;;
71265;SDS011;59030;52.052;8.550;2022-08-04T04:40:39;7.20;;;4.00;;
71265;SDS011;59030;52.052;8.550;2022-08-04T04:43:10;7.40;;;4.10;;
71265;SDS011;59030;52.052;8.550;2022-08-04T04:45:40;6.80;;;4.20;;
71265;SDS011;59030;52.052;8.550;2022-08-04T04:48:13;4.83;;;4.10;;
71265;SDS011;59030;52.052;8.550;2022-08-04T04:50:41;9.13;;;4.50;;
71265;SDS011;59030;52.052;8.550;2022-08-04T04:53:11;9.00;;;4.40;;
71265;SDS011;59030;52.052;8.550;2022-08-04T04:55:41;9.43;;;4.80;;
71265;SDS011;59030;52.052;8.550;2022-08-04T04:58:10;8.87;;;4.23;;
71265;SDS011;59030;52.052;8.550;2022-08-04T05:00:42;11.47;;;4.10;;
71265;SDS011;59030;52.052;8.550;2022-08-04T05:08:57;7.97;;;4.10;;
71265;SDS011;59030;52.052;8.550;2022-08-04T05:11:30;13.20;;;5.27;;
71265;SDS011;59030;52.052;8.550;2022-08-04T05:14:00;7.90;;;5.27;;
71265;SDS011;59030;52.052;8.550;2022-08-04T05:16:30;9.70;;;5.37;;
71265;SDS011;59030;52.052;8.550;2022-08-04T05:19:02;9.90;;;4.90;;
71265;SDS011;59030;52.052;8.550;2022-08-04T05:21:32;7.67;;;4.23;;
71265;SDS011;59030;52.052;8.550;2022-08-04T05:24:01;8.20;;;4.53;;
71265;SDS011;59030;52.052;8.550;2022-08-04T05:26:30;7.17;;;4.50;;
71265;SDS011;59030;52.052;8.550;2022-08-04T05:28:58;8.30;;;4.17;;
71265;SDS011;59030;52.052;8.550;2022-08-04T05:31:35;8.27;;;4.80;;
71265;SDS011;59030;52.052;8.550;2022-08-04T05:33:56;7.30;;;4.47;;
71265;SDS011;59030;52.052;8.550;2022-08-04T05:36:25;9.63;;;4.60;;
71265;SDS011;59030;52.052;8.550;2022-08-04T05:38:53;5.97;;;4.10;;
71265;SDS011;59030;52.052;8.550;2022-08-04T05:41:23;9.13;;;4.80;;
71265;SDS011;59030;52.052;8.550;2022-08-04T05:43:51;8.90;;;4.53;;
71265;SDS011;59030;52.052;8.550;2022-08-04T05:46:19;6.47;;;4.70;;
71265;SDS011;59030;52.052;8.550;2022-08-04T05:48:47;6.33;;;4.57;;
71265;SDS011;59030;52.052;8.550;2022-08-04T05:51:15;8.23;;;4.70;;
71265;SDS011;59030;52.052;8.550;2022-08-04T05:53:42;8.40;;;4.70;;
71265;SDS011;59030;52.052;8.550;2022-08-04T05:56:11;6.33;;;4.10;;
71265;SDS011;59030;52.052;8.550;2022-08-04T05:58:40;8.83;;;4.60;;
71265;SDS011;59030;52.052;8.550;2022-08-04T06:01:08;9.63;;;4.50;;
71265;SDS011;59030;52.052;8.550;2022-08-04T06:03:36;7.23;;;4.43;;
71265;SDS011;59030;52.052;8.550;2022-08-04T06:06:04;9.43;;;4.50;;
71265;SDS011;59030;52.052;8.550;2022-08-04T06:08:34;10.27;;;4.50;;
71265;SDS011;59030;52.052;8.550;2022-08-04T06:11:03;8.00;;;4.80;;
71265;SDS011;59030;52.052;8.550;2022-08-04T06:13:35;11.03;;;4.60;;
71265;SDS011;59030;52.052;8.550;2022-08-04T06:16:01;7.57;;;4.80;;
71265;SDS011;59030;52.052;8.550;2022-08-04T06:18:30;6.73;;;5.10;;
71265;SDS011;59030;52.052;8.550;2022-08-04T06:21:00;12.13;;;4.40;;
71265;SDS011;59030;52.052;8.550;2022-08-04T06:23:29;8.13;;;5.20;;
71265;SDS011;59030;52.052;8.550;2022-08-04T06:25:57;8.30;;;4.50;;
71265;SDS011;59030;52.052;8.550;2022-08-04T06:28:25;7.77;;;4.53;;
71265;SDS011;59030;52.052;8.550;2022-08-04T06:30:53;8.43;;;4.47;;
71265;SDS011;59030;52.052;8.550;2022-08-04T06:33:22;5.87;;;4.10;;
71265;SDS011;59030;52.052;8.550;2022-08-04T06:35:52;7.70;;;4.10;;
71265;SDS011;59030;52.052;8.550;2022-08-04T06:38:20;6.10;;;4.20;;
71265;SDS011;59030;52.052;8.550;2022-08-04T06:43:35;7.07;;;4.23;;
71265;SDS011;59030;52.052;8.550;2022-08-04T06:46:04;6.27;;;4.47;;
71265;SDS011;59030;52.052;8.550;2022-08-04T06:48:32;7.33;;;4.30;;
71265;SDS011;59030;52.052;8.550;2022-08-04T06:51:00;8.00;;;4.50;;
71265;SDS011;59030;52.052;8.550;2022-08-04T06:53:28;5.30;;;3.40;;
71265;SDS011;59030;52.052;8.550;2022-08-04T06:55:56;9.53;;;4.37;;
71265;SDS011;59030;52.052;8.550;2022-08-04T06:58:23;6.53;;;4.20;;
71265;SDS011;59030;52.052;8.550;2022-08-04T07:00:51;3.93;;;3.53;;
71265;SDS011;59030;52.052;8.550;2022-08-04T07:03:19;6.70;;;3.93;;
71265;SDS011;59030;52.052;8.550;2022-08-04T07:05:47;5.03;;;3.77;;
71265;SDS011;59030;52.052;8.550;2022-08-04T07:08:15;4.30;;;3.57;;
71265;SDS011;59030;52.052;8.550;2022-08-04T07:10:42;8.17;;;3.50;;
71265;SDS011;59030;52.052;8.550;2022-08-04T07:13:10;4.43;;;3.53;;
71265;SDS011;59030;52.052;8.550;2022-08-04T07:15:38;4.57;;;3.40;;
71265;SDS011;59030;52.052;8.550;2022-08-04T07:18:07;3.67;;;2.87;;
71265;SDS011;59030;52.052;8.550;2022-08-04T07:20:35;6.40;;;3.53;;
71265;SDS011;59030;52.052;8.550;2022-08-04T07:23:03;5.97;;;3.60;;
71265;SDS011;59030;52.052;8.550;2022-08-04T07:25:32;4.37;;;3.23;;
71265;SDS011;59030;52.052;8.550;2022-08-04T07:27:59;3.10;;;2.80;;
71265;SDS011;59030;52.052;8.550;2022-08-04T07:30:27;5.40;;;3.20;;
71265;SDS011;59030;52.052;8.550;2022-08-04T07:32:55;4.03;;;3.30;;
71265;SDS011;59030;52.052;8.550;2022-08-04T07:35:22;6.07;;;3.20;;
71265;SDS011;59030;52.052;8.550;2022-08-04T07:37:50;5.07;;;3.13;;
71265;SDS011;59030;52.052;8.550;2022-08-04T07:40:18;6.90;;;3.30;;
71265;SDS011;59030;52.052;8.550;2022-08-04T07:42:45;4.33;;;3.20;;
71265;SDS011;59030;52.052;8.550;2022-08-04T07:45:12;6.27;;;3.63;;
71265;SDS011;59030;52.052;8.550;2022-08-04T07:47:42;5.07;;;3.43;;
71265;SDS011;59030;52.052;8.550;2022-08-04T07:50:09;5.27;;;3.50;;
71265;SDS011;59030;52.052;8.550;2022-08-04T07:52:38;4.23;;;2.97;;
71265;SDS011;59030;52.052;8.550;2022-08-04T07:55:06;3.30;;;3.00;;
71265;SDS011;59030;52.052;8.550;2022-08-04T07:57:33;4.67;;;3.03;;
71265;SDS011;59030;52.052;8.550;2022-08-04T08:00:01;7.47;;;3.70;;
71265;SDS011;59030;52.052;8.550;2022-08-04T08:02:29;4.80;;;3.07;;
71265;SDS011;59030;52.052;8.550;2022-08-04T08:04:57;3.50;;;2.80;;
71265;SDS011;59030;52.052;8.550;2022-08-04T08:07:25;4.17;;;3.10;;
71265;SDS011;59030;52.052;8.550;2022-08-04T08:09:52;3.90;;;2.90;;
71265;SDS011;59030;52.052;8.550;2022-08-04T08:12:19;3.47;;;3.03;;
71265;SDS011;59030;52.052;8.550;2022-08-04T08:14:47;4.20;;;3.00;;
71265;SDS011;59030;52.052;8.550;2022-08-04T08:17:15;4.03;;;3.20;;
71265;SDS011;59030;52.052;8.550;2022-08-04T08:19:42;4.97;;;3.00;;
71265;SDS011;59030;52.052;8.550;2022-08-04T08:22:10;5.37;;;3.00;;
71265;SDS011;59030;52.052;8.550;2022-08-04T08:24:37;5.33;;;3.00;;
71265;SDS011;59030;52.052;8.550;2022-08-04T08:27:05;4.37;;;3.00;;
71265;SDS011;59030;52.052;8.550;2022-08-04T08:29:33;4.17;;;3.00;;
71265;SDS011;59030;52.052;8.550;2022-08-04T08:32:01;4.43;;;2.90;;
71265;SDS011;59030;52.052;8.550;2022-08-04T08:34:29;3.50;;;2.97;;
71265;SDS011;59030;52.052;8.550;2022-08-04T08:36:58;2.93;;;2.63;;
71265;SDS011;59030;52.052;8.550;2022-08-04T08:39:28;3.30;;;3.00;;
71265;SDS011;59030;52.052;8.550;2022-08-04T08:42:04;3.53;;;2.60;;
71265;SDS011;59030;52.052;8.550;2022-08-04T08:44:37;8.07;;;3.50;;
71265;SDS011;59030;52.052;8.550;2022-08-04T08:52:53;4.33;;;2.90;;
71265;SDS011;59030;52.052;8.550;2022-08-04T08:55:25;3.60;;;2.93;;
71265;SDS011;59030;52.052;8.550;2022-08-04T08:57:58;3.23;;;2.90;;
71265;SDS011;59030;52.052;8.550;2022-08-04T09:00:25;4.57;;;3.00;;
71265;SDS011;59030;52.052;8.550;2022-08-04T09:03:04;4.93;;;3.40;;
71265;SDS011;59030;52.052;8.550;2022-08-04T09:05:39;3.53;;;2.90;;
71265;SDS011;59030;52.052;8.550;2022-08-04T09:08:29;5.50;;;3.00;;
71265;SDS011;59030;52.052;8.550;2022-08-04T09:10:58;6.20;;;3.30;;
71265;SDS011;59030;52.052;8.550;2022-08-04T09:13:28;6.17;;;3.43;;
71265;SDS011;59030;52.052;8.550;2022-08-04T09:15:58;5.10;;;3.17;;
71265;SDS011;59030;52.052;8.550;2022-08-04T09:18:27;5.97;;;3.63;;
71265;SDS011;59030;52.052;8.550;2022-08-04T09:20:58;3.43;;;3.10;;
71265;SDS011;59030;52.052;8.550;2022-08-04T09:23:25;3.20;;;3.00;;
71265;SDS011;59030;52.052;8.550;2022-08-04T09:25:56;3.70;;;3.27;;
71265;SDS011;59030;52.052;8.550;2022-08-04T09:28:23;4.50;;;3.43;;
71265;SDS011;59030;52.052;8.550;2022-08-04T09:30:55;3.97;;;3.60;;
71265;SDS011;59030;52.052;8.550;2022-08-04T09:33:27;4.47;;;3.13;;
71265;SDS011;59030;52.052;8.550;2022-08-04T09:35:56;4.13;;;3.67;;
71265;SDS011;59030;52.052;8.550;2022-08-04T09:38:26;3.83;;;3.53;;
71265;SDS011;59030;52.052;8.550;2022-08-04T09:40:53;4.20;;;3.33;;
71265;SDS011;59030;52.052;8.550;2022-08-04T09:43:30;3.43;;;3.13;;
71265;SDS011;59030;52.052;8.550;2022-08-04T09:45:59;3.60;;;3.30;;
71265;SDS011;59030;52.052;8.550;2022-08-04T09:48:30;4.65;;;3.58;;
71265;SDS011;59030;52.052;8.550;2022-08-04T09:50:57;5.20;;;3.47;;
71265;SDS011;59030;52.052;8.550;2022-08-04T09:53:29;5.45;;;3.37;;
71265;SDS011;59030;52.052;8.550;2022-08-04T09:55:59;5.45;;;3.70;;
71265;SDS011;59030;52.052;8.550;2022-08-04T09:58:27;4.87;;;3.40;;
71265;SDS011;59030;52.052;8.550;2022-08-04T10:00:58;4.20;;;3.33;;
71265;SDS011;59030;52.052;8.550;2022-08-04T10:03:25;4.08;;;3.25;;
71265;SDS011;59030;52.052;8.550;2022-08-04T10:05:59;3.92;;;3.35;;
71265;SDS011;59030;52.052;8.550;2022-08-04T10:08:32;4.67;;;3.72;;
71265;SDS011;59030;52.052;8.550;2022-08-04T10:10:58;4.25;;;3.22;;
71265;SDS011;59030;52.052;8.550;2022-08-04T10:13:31;3.70;;;3.40;;
71265;SDS011;59030;52.052;8.550;2022-08-04T10:16:06;3.75;;;3.45;;
71265;SDS011;59030;52.052;8.550;2022-08-04T10:18:34;5.00;;;3.47;;
71265;SDS011;59030;52.052;8.550;2022-08-04T10:21:10;3.80;;;3.40;;
71265;SDS011;59030;52.052;8.550;2022-08-04T10:23:35;5.05;;;3.67;;
71265;SDS011;59030;52.052;8.550;2022-08-04T10:26:09;3.73;;;3.43;;
71265;SDS011;59030;52.052;8.550;2022-08-04T10:28:36;4.43;;;3.70;;
71265;SDS011;59030;52.052;8.550;2022-08-04T10:31:06;5.47;;;3.47;;
71265;SDS011;59030;52.052;8.550;2022-08-04T10:33:36;4.15;;;3.60;;
71265;SDS011;59030;52.052;8.550;2022-08-04T10:36:03;3.80;;;3.50;;
71265;SDS011;59030;52.052;8.550;2022-08-04T10:38:32;3.87;;;3.30;;
71265;SDS011;59030;52.052;8.550;2022-08-04T10:41:04;4.28;;;3.25;;
71265;SDS011;59030;52.052;8.550;2022-08-04T10:43:36;4.03;;;3.23;;
71265;SDS011;59030;52.052;8.550;2022-08-04T10:46:02;5.37;;;3.30;;
71265;SDS011;59030;52.052;8.550;2022-08-04T10:48:35;3.83;;;3.53;;
71265;SDS011;59030;52.052;8.550;2022-08-04T10:51:03;3.60;;;3.30;;
71265;SDS011;59030;52.052;8.550;2022-08-04T10:53:31;5.50;;;3.47;;
71265;SDS011;59030;52.052;8.550;2022-08-04T10:56:02;3.70;;;3.10;;
71265;SDS011;59030;52.052;8.550;2022-08-04T10:58:32;3.45;;;3.15;;
71265;SDS011;59030;52.052;8.550;2022-08-04T11:01:01;3.67;;;3.13;;
71265;SDS011;59030;52.052;8.550;2022-08-04T11:03:33;3.90;;;3.25;;
71265;SDS011;59030;52.052;8.550;2022-08-04T11:05:59;3.50;;;2.73;;
71265;SDS011;59030;52.052;8.550;2022-08-04T11:08:30;3.27;;;3.00;;
71265;SDS011;59030;52.052;8.550;2022-08-04T11:13:39;5.50;;;3.17;;
71265;SDS011;59030;52.052;8.550;2022-08-04T11:16:08;3.20;;;2.90;;
71265;SDS011;59030;52.052;8.550;2022-08-04T11:18:38;3.30;;;3.00;;
71265;SDS011;59030;52.052;8.550;2022-08-04T11:21:09;3.33;;;3.02;;
71265;SDS011;59030;52.052;8.550;2022-08-04T11:23:36;3.62;;;2.95;;
71265;SDS011;59030;52.052;8.550;2022-08-04T11:26:05;4.67;;;2.93;;
71265;SDS011;59030;52.052;8.550;2022-08-04T11:28:38;3.20;;;2.87;;
71265;SDS011;59030;52.052;8.550;2022-08-04T11:31:06;3.37;;;2.92;;
71265;SDS011;59030;52.052;8.550;2022-08-04T11:33:35;4.20;;;3.17;;
71265;SDS011;59030;52.052;8.550;2022-08-04T11:36:07;2.65;;;2.45;;
71265;SDS011;59030;52.052;8.550;2022-08-04T11:38:37;2.98;;;2.77;;
71265;SDS011;59030;52.052;8.550;2022-08-04T11:41:08;3.17;;;2.87;;
71265;SDS011;59030;52.052;8.550;2022-08-04T11:43:38;3.77;;;2.85;;
71265;SDS011;59030;52.052;8.550;2022-08-04T11:46:07;3.80;;;2.72;;
71265;SDS011;59030;52.052;8.550;2022-08-04T11:48:36;2.70;;;2.50;;
71265;SDS011;59030;52.052;8.550;2022-08-04T11:51:05;3.10;;;2.90;;
71265;SDS011;59030;52.052;8.550;2022-08-04T11:53:36;3.55;;;2.72;;
71265;SDS011;59030;52.052;8.550;2022-08-04T11:56:04;2.90;;;2.70;;
71265;SDS011;59030;52.052;8.550;2022-08-04T11:58:32;3.40;;;3.12;;
71265;SDS011;59030;52.052;8.550;2022-08-04T12:01:02;3.00;;;2.80;;
71265;SDS011;59030;52.052;8.550;2022-08-04T12:03:33;3.00;;;2.80;;
71265;SDS011;59030;52.052;8.550;2022-08-04T12:06:05;3.17;;;2.92;;
71265;SDS011;59030;52.052;8.550;2022-08-04T12:08:42;2.95;;;2.70;;
71265;SDS011;59030;52.052;8.550;2022-08-04T12:11:11;3.65;;;2.60;;
71265;SDS011;59030;52.052;8.550;2022-08-04T12:13:39;2.52;;;2.42;;
71265;SDS011;59030;52.052;8.550;2022-08-04T12:16:09;3.60;;;2.67;;
71265;SDS011;59030;52.052;8.550;2022-08-04T12:18:38;3.45;;;2.37;;
71265;SDS011;59030;52.052;8.550;2022-08-04T12:21:07;2.02;;;1.80;;
71265;SDS011;59030;52.052;8.550;2022-08-04T12:23:37;8.60;;;3.17;;
71265;SDS011;59030;52.052;8.550;2022-08-04T12:26:06;7.17;;;3.17;;
71265;SDS011;59030;52.052;8.550;2022-08-04T12:28:35;7.67;;;2.50;;
71265;SDS011;59030;52.052;8.550;2022-08-04T12:31:04;4.67;;;2.12;;
71265;SDS011;59030;52.052;8.550;2022-08-04T12:33:34;9.45;;;2.87;;
71265;SDS011;59030;52.052;8.550;2022-08-04T12:36:11;2.85;;;2.20;;
71265;SDS011;59030;52.052;8.550;2022-08-04T12:38:33;6.30;;;2.80;;
71265;SDS011;59030;52.052;8.550;2022-08-04T12:41:00;3.05;;;2.08;;
71265;SDS011;59030;52.052;8.550;2022-08-04T12:43:30;4.00;;;2.60;;
71265;SDS011;59030;52.052;8.550;2022-08-04T12:45:59;3.20;;;2.45;;
71265;SDS011;59030;52.052;8.550;2022-08-04T12:48:27;3.60;;;2.27;;
71265;SDS011;59030;52.052;8.550;2022-08-04T12:50:55;2.40;;;2.20;;
71265;SDS011;59030;52.052;8.550;2022-08-04T12:53:25;2.77;;;2.45;;
71265;SDS011;59030;52.052;8.550;2022-08-04T12:55:52;2.72;;;2.52;;
71265;SDS011;59030;52.052;8.550;2022-08-04T12:58:20;4.70;;;2.50;;
71265;SDS011;59030;52.052;8.550;2022-08-04T13:00:52;4.80;;;2.65;;
71265;SDS011;59030;52.052;8.550;2022-08-04T13:03:21;4.17;;;2.70;;
71265;SDS011;59030;52.052;8.550;2022-08-04T13:05:52;3.55;;;2.30;;
71265;SDS011;59030;52.052;8.550;2022-08-04T13:08:21;3.52;;;2.80;;
71265;SDS011;59030;52.052;8.550;2022-08-04T13:10:49;2.95;;;2.30;;
71265;SDS011;59030;52.052;8.550;2022-08-04T13:13:18;2.35;;;2.08;;
71265;SDS011;59030;52.052;8.550;2022-08-04T13:16:05;5.22;;;2.52;;
71265;SDS011;59030;52.052;8.550;2022-08-04T13:18:34;3.77;;;2.50;;
71265;SDS011;59030;52.052;8.550;2022-08-04T13:21:07;4.22;;;2.12;;
71265;SDS011;59030;52.052;8.550;2022-08-04T13:23:39;3.25;;;2.62;;
71265;SDS011;59030;52.052;8.550;2022-08-04T13:26:07;4.00;;;2.20;;
71265;SDS011;59030;52.052;8.550;2022-08-04T13:28:37;3.67;;;2.80;;
71265;SDS011;59030;52.052;8.550;2022-08-04T13:31:05;2.98;;;2.20;;
71265;SDS011;59030;52.052;8.550;2022-08-04T13:33:35;2.98;;;2.67;;
71265;SDS011;59030;52.052;8.550;2022-08-04T13:36:04;6.22;;;2.52;;
71265;SDS011;59030;52.052;8.550;2022-08-04T13:38:33;2.25;;;2.15;;
71265;SDS011;59030;52.052;8.550;2022-08-04T13:41:02;4.05;;;2.50;;
71265;SDS011;59030;52.052;8.550;2022-08-04T13:43:31;2.55;;;2.37;;
71265;SDS011;59030;52.052;8.550;2022-08-04T13:46:02;4.42;;;2.20;;
71265;SDS011;59030;52.052;8.550;2022-08-04T13:48:32;3.00;;;2.60;;
71265;SDS011;59030;52.052;8.550;2022-08-04T13:51:01;2.85;;;2.50;;
71265;SDS011;59030;52.052;8.550;2022-08-04T13:53:30;2.95;;;2.70;;
71265;SDS011;59030;52.052;8.550;2022-08-04T13:55:58;3.12;;;2.52;;
71265;SDS011;59030;52.052;8.550;2022-08-04T13:58:28;2.90;;;2.70;;
71265;SDS011;59030;52.052;8.550;2022-08-04T14:00:58;4.47;;;2.60;;
71265;SDS011;59030;52.052;8.550;2022-08-04T14:03:28;6.15;;;3.05;;
71265;SDS011;59030;52.052;8.550;2022-08-04T14:06:10;7.75;;;2.87;;
71265;SDS011;59030;52.052;8.550;2022-08-04T14:08:44;3.35;;;3.05;;
71265;SDS011;59030;52.052;8.550;2022-08-04T14:11:12;3.35;;;2.80;;
71265;SDS011;59030;52.052;8.550;2022-08-04T14:13:40;4.22;;;3.00;;
71265;SDS011;59030;52.052;8.550;2022-08-04T14:16:14;5.15;;;3.08;;
71265;SDS011;59030;52.052;8.550;2022-08-04T14:18:41;3.98;;;2.90;;
71265;SDS011;59030;52.052;8.550;2022-08-04T14:21:09;4.85;;;3.10;;
71265;SDS011;59030;52.052;8.550;2022-08-04T14:23:39;4.15;;;2.83;;
71265;SDS011;59030;52.052;8.550;2022-08-04T14:26:17;4.67;;;3.00;;
71265;SDS011;59030;52.052;8.550;2022-08-04T14:28:44;5.17;;;2.67;;
71265;SDS011;59030;52.052;8.550;2022-08-04T14:31:13;2.90;;;2.50;;
71265;SDS011;59030;52.052;8.550;2022-08-04T14:33:41;3.75;;;2.90;;
71265;SDS011;59030;52.052;8.550;2022-08-04T14:36:09;7.53;;;2.90;;
71265;SDS011;59030;52.052;8.550;2022-08-04T14:38:43;4.10;;;2.98;;
71265;SDS011;59030;52.052;8.550;2022-08-04T14:41:11;4.53;;;3.10;;
71265;SDS011;59030;52.052;8.550;2022-08-04T14:43:46;5.67;;;3.17;;
71265;SDS011;59030;52.052;8.550;2022-08-04T14:46:14;6.30;;;2.70;;
71265;SDS011;59030;52.052;8.550;2022-08-04T14:48:59;5.47;;;2.65;;
71265;SDS011;59030;52.052;8.550;2022-08-04T14:51:27;8.83;;;3.37;;
71265;SDS011;59030;52.052;8.550;2022-08-04T14:53:54;4.80;;;2.90;;
71265;SDS011;59030;52.052;8.550;2022-08-04T14:56:22;5.53;;;2.98;;
71265;SDS011;59030;52.052;8.550;2022-08-04T14:58:57;8.53;;;3.15;;
71265;SDS011;59030;52.052;8.550;2022-08-04T15:01:25;8.30;;;3.02;;
71265;SDS011;59030;52.052;8.550;2022-08-04T15:03:53;7.22;;;3.40;;
71265;SDS011;59030;52.052;8.550;2022-08-04T15:06:22;5.67;;;3.50;;
71265;SDS011;59030;52.052;8.550;2022-08-04T15:08:51;10.68;;;3.92;;
71265;SDS011;59030;52.052;8.550;2022-08-04T15:11:19;4.95;;;3.30;;
71265;SDS011;59030;52.052;8.550;2022-08-04T15:13:47;9.38;;;4.62;;
71265;SDS011;59030;52.052;8.550;2022-08-04T15:16:14;6.00;;;3.65;;
71265;SDS011;59030;52.052;8.550;2022-08-04T15:18:42;4.80;;;3.55;;
71265;SDS011;59030;52.052;8.550;2022-08-04T15:21:09;5.22;;;3.20;;
71265;SDS011;59030;52.052;8.550;2022-08-04T15:23:38;3.35;;;3.05;;
71265;SDS011;59030;52.052;8.550;2022-08-04T15:26:06;8.83;;;3.42;;
71265;SDS011;59030;52.052;8.550;2022-08-04T15:28:35;5.55;;;3.02;;
71265;SDS011;59030;52.052;8.550;2022-08-04T15:31:03;6.00;;;3.40;;
71265;SDS011;59030;52.052;8.550;2022-08-04T15:33:31;3.30;;;2.92;;
71265;SDS011;59030;52.052;8.550;2022-08-04T15:36:09;5.15;;;3.10;;
71265;SDS011;59030;52.052;8.550;2022-08-04T15:38:37;3.62;;;3.15;;
71265;SDS011;59030;52.052;8.550;2022-08-04T15:41:07;7.65;;;3.80;;
71265;SDS011;59030;52.052;8.550;2022-08-04T15:43:43;4.17;;;3.20;;
71265;SDS011;59030;52.052;8.550;2022-08-04T15:46:10;6.65;;;3.47;;
71265;SDS011;59030;52.052;8.550;2022-08-04T15:48:38;7.92;;;3.40;;
71265;SDS011;59030;52.052;8.550;2022-08-04T15:51:07;3.33;;;3.02;;
71265;SDS011;59030;52.052;8.550;2022-08-04T15:59:09;3.70;;;3.17;;
71265;SDS011;59030;52.052;8.550;2022-08-04T16:01:36;4.83;;;3.43;;
71265;SDS011;59030;52.052;8.550;2022-08-04T16:04:20;3.83;;;3.15;;
71265;SDS011;59030;52.052;8.550;2022-08-04T16:06:47;7.37;;;3.52;;
71265;SDS011;59030;52.052;8.550;2022-08-04T16:09:22;3.60;;;3.30;;
71265;SDS011;59030;52.052;8.550;2022-08-04T16:11:50;6.07;;;3.60;;
71265;SDS011;59030;52.052;8.550;2022-08-04T16:14:21;4.70;;;3.17;;
71265;SDS011;59030;52.052;8.550;2022-08-04T16:16:46;5.08;;;3.10;;
71265;SDS011;59030;52.052;8.550;2022-08-04T16:19:19;3.45;;;3.15;;
71265;SDS011;59030;52.052;8.550;2022-08-04T16:21:46;5.65;;;3.50;;
71265;SDS011;59030;52.052;8.550;2022-08-04T16:24:17;5.87;;;3.30;;
71265;SDS011;59030;52.052;8.550;2022-08-04T16:26:47;4.35;;;3.40;;
71265;SDS011;59030;52.052;8.550;2022-08-04T16:29:28;3.80;;;3.25;;
71265;SDS011;59030;52.052;8.550;2022-08-04T16:32:06;5.22;;;3.37;;
71265;SDS011;59030;52.052;8.550;2022-08-04T16:34:36;4.33;;;3.20;;
71265;SDS011;59030;52.052;8.550;2022-08-04T16:37:04;4.33;;;3.40;;
71265;SDS011;59030;52.052;8.550;2022-08-04T16:39:32;4.65;;;3.60;;
71265;SDS011;59030;52.052;8.550;2022-08-04T16:42:00;3.42;;;2.95;;
71265;SDS011;59030;52.052;8.550;2022-08-04T16:44:30;5.67;;;3.03;;
71265;SDS011;59030;52.052;8.550;2022-08-04T16:46:57;3.50;;;2.83;;
71265;SDS011;59030;52.052;8.550;2022-08-04T16:49:25;4.15;;;3.08;;
71265;SDS011;59030;52.052;8.550;2022-08-04T16:51:54;4.12;;;3.20;;
71265;SDS011;59030;52.052;8.550;2022-08-04T16:54:22;4.70;;;2.95;;
71265;SDS011;59030;52.052;8.550;2022-08-04T16:56:50;4.08;;;2.92;;
71265;SDS011;59030;52.052;8.550;2022-08-04T16:59:18;3.72;;;2.90;;
71265;SDS011;59030;52.052;8.550;2022-08-04T17:01:46;3.40;;;3.10;;
71265;SDS011;59030;52.052;8.550;2022-08-04T17:04:14;4.03;;;3.35;;
71265;SDS011;59030;52.052;8.550;2022-08-04T17:06:43;5.40;;;3.42;;
71265;SDS011;59030;52.052;8.550;2022-08-04T17:09:12;4.20;;;3.20;;
71265;SDS011;59030;52.052;8.550;2022-08-04T17:11:40;4.63;;;3.10;;
71265;SDS011;59030;52.052;8.550;2022-08-04T17:14:08;4.33;;;3.30;;
71265;SDS011;59030;52.052;8.550;2022-08-04T17:16:36;2.98;;;2.67;;
71265;SDS011;59030;52.052;8.550;2022-08-04T17:19:04;4.97;;;3.13;;
71265;SDS011;59030;52.052;8.550;2022-08-04T17:21:34;4.80;;;3.20;;
71265;SDS011;59030;52.052;8.550;2022-08-04T17:24:02;9.03;;;3.33;;
71265;SDS011;59030;52.052;8.550;2022-08-04T17:26:31;7.85;;;3.47;;
71265;SDS011;59030;52.052;8.550;2022-08-04T17:28:58;7.92;;;3.20;;
71265;SDS011;59030;52.052;8.550;2022-08-04T17:31:27;3.27;;;2.95;;